NBL105 PHTO-PKMJ
Flight info
| Callsign | NBL105 |
|---|---|
| Flight time | 5h 6m |
| Altitude | 32000 |
| Route | PHTO/08 N0472F320 DCT ITO V22 OKALA V16 KEOLA DCT CHOKO DCT NIXEE DCT 17N165W 15N170W 12N175W 10N180E 07N175E DCT MAJ DCT PKMJ/07 |
| Aircraft | B738/M-SDE2E3FGHIRWXY/LB1 |
Departure
| Time | 2026-04-28 19:32 |
|---|---|
| Airport | Hilo International Airport (PHTO) |
Arrival
| Time | 2026-04-29 00:38 |
|---|---|
| Airport | Marshall Islands International Airport (PKMJ) |
| Time | Latitude | Longitude | Altitude | Speed | Heading |
|---|---|---|---|---|---|
| 2026-04-28 19:27 | 19.72147 | -155.05752 | 33 ft | 0 kts | 90° |
| 2026-04-28 19:31 | 19.72147 | -155.05746 | 35 ft | 7 kts | 90° |
| 2026-04-28 19:31 | 19.72149 | -155.05440 | 39 ft | 76 kts | 89° |
| 2026-04-28 19:31 | 19.72151 | -155.04640 | 35 ft | 138 kts | 90° |
| 2026-04-28 19:32 | 19.72171 | -155.03437 | 126 ft | 182 kts | 89° |
| 2026-04-28 19:32 | 19.72190 | -155.02048 | 752 ft | 195 kts | 84° |
| 2026-04-28 19:32 | 19.72706 | -155.00779 | 1601 ft | 192 kts | 42° |
| 2026-04-28 19:32 | 19.74000 | -155.00154 | 1780 ft | 227 kts | 8° |
| 2026-04-28 19:33 | 19.75612 | -155.00491 | 2019 ft | 243 kts | 335° |
| 2026-04-28 19:33 | 19.77016 | -155.01379 | 2849 ft | 232 kts | 323° |
| 2026-04-28 19:33 | 19.78245 | -155.02556 | 3189 ft | 244 kts | 317° |
| 2026-04-28 19:33 | 19.79467 | -155.03849 | 3621 ft | 251 kts | 316° |
| 2026-04-28 19:34 | 19.80730 | -155.05179 | 4061 ft | 261 kts | 316° |
| 2026-04-28 19:34 | 19.82046 | -155.06541 | 4721 ft | 265 kts | 316° |
| 2026-04-28 19:34 | 19.83369 | -155.07889 | 5581 ft | 264 kts | 317° |
| 2026-04-28 19:34 | 19.84699 | -155.09227 | 6287 ft | 269 kts | 317° |
| 2026-04-28 19:35 | 19.86087 | -155.10611 | 6957 ft | 271 kts | 317° |
| 2026-04-28 19:35 | 19.87449 | -155.11962 | 7601 ft | 272 kts | 317° |
| 2026-04-28 19:35 | 19.88839 | -155.13337 | 8241 ft | 274 kts | 317° |
| 2026-04-28 19:35 | 19.90244 | -155.14722 | 8896 ft | 277 kts | 317° |
| 2026-04-28 19:36 | 19.91663 | -155.16121 | 9533 ft | 280 kts | 317° |
| 2026-04-28 19:36 | 19.93098 | -155.17534 | 10157 ft | 282 kts | 317° |
| 2026-04-28 19:36 | 19.94572 | -155.18986 | 10439 ft | 299 kts | 317° |
| 2026-04-28 19:36 | 19.96147 | -155.20536 | 10624 ft | 318 kts | 317° |
| 2026-04-28 19:37 | 19.97828 | -155.22191 | 10753 ft | 339 kts | 316° |
| 2026-04-28 19:37 | 19.98992 | -155.23338 | 10845 ft | 351 kts | 317° |
| 2026-04-28 19:37 | 20.01345 | -155.25899 | 11035 ft | 373 kts | 307° |
| 2026-04-28 19:37 | 20.02728 | -155.28260 | 11494 ft | 377 kts | 295° |
| 2026-04-28 19:38 | 20.03648 | -155.30821 | 12150 ft | 375 kts | 286° |
| 2026-04-28 19:38 | 20.04163 | -155.33535 | 12789 ft | 375 kts | 276° |
| 2026-04-28 19:38 | 20.04392 | -155.36298 | 13369 ft | 378 kts | 275° |
| 2026-04-28 19:38 | 20.04592 | -155.39117 | 13793 ft | 383 kts | 275° |
| 2026-04-28 19:39 | 20.04783 | -155.41952 | 14279 ft | 386 kts | 275° |
| 2026-04-28 19:39 | 20.04953 | -155.44805 | 14753 ft | 387 kts | 272° |
| 2026-04-28 19:39 | 20.04858 | -155.47675 | 15201 ft | 390 kts | 267° |
| 2026-04-28 19:39 | 20.04641 | -155.50569 | 15571 ft | 394 kts | 266° |
| 2026-04-28 19:40 | 20.04394 | -155.53482 | 15977 ft | 397 kts | 265° |
| 2026-04-28 19:40 | 20.04143 | -155.56408 | 16472 ft | 398 kts | 265° |
| 2026-04-28 19:40 | 20.03899 | -155.59340 | 16923 ft | 399 kts | 266° |
| 2026-04-28 19:40 | 20.03664 | -155.62294 | 17267 ft | 402 kts | 266° |
| 2026-04-28 19:41 | 20.03435 | -155.65258 | 17668 ft | 403 kts | 266° |
| 2026-04-28 19:41 | 20.03211 | -155.68238 | 18002 ft | 407 kts | 266° |
| 2026-04-28 19:41 | 20.02987 | -155.71259 | 18283 ft | 412 kts | 266° |
| 2026-04-28 19:41 | 20.02762 | -155.74305 | 18633 ft | 413 kts | 266° |
| 2026-04-28 19:42 | 20.02538 | -155.77353 | 19032 ft | 413 kts | 266° |
| 2026-04-28 19:42 | 20.02314 | -155.80391 | 19409 ft | 414 kts | 266° |
| 2026-04-28 19:42 | 20.02091 | -155.83414 | 19748 ft | 416 kts | 266° |
| 2026-04-28 19:42 | 20.01938 | -155.85487 | 19974 ft | 417 kts | 266° |
| 2026-04-28 19:43 | 20.01635 | -155.89568 | 20401 ft | 419 kts | 266° |
| 2026-04-28 19:43 | 20.01405 | -155.92669 | 20731 ft | 421 kts | 266° |
| 2026-04-28 19:43 | 20.01174 | -155.95770 | 21083 ft | 422 kts | 266° |
| 2026-04-28 19:43 | 20.00940 | -155.98899 | 21426 ft | 423 kts | 266° |
| 2026-04-28 19:44 | 20.00706 | -156.02017 | 21736 ft | 425 kts | 266° |
| 2026-04-28 19:44 | 20.00470 | -156.05160 | 22029 ft | 427 kts | 266° |
| 2026-04-28 19:44 | 20.00232 | -156.08317 | 22334 ft | 429 kts | 266° |
| 2026-04-28 19:44 | 19.99993 | -156.11485 | 22634 ft | 430 kts | 266° |
| 2026-04-28 19:45 | 19.99753 | -156.14664 | 22928 ft | 432 kts | 266° |
| 2026-04-28 19:45 | 19.99512 | -156.17845 | 23214 ft | 433 kts | 266° |
| 2026-04-28 19:45 | 19.99268 | -156.21048 | 23498 ft | 435 kts | 266° |
| 2026-04-28 19:45 | 19.99027 | -156.24219 | 23752 ft | 436 kts | 266° |
| 2026-04-28 19:46 | 19.98778 | -156.27469 | 24025 ft | 436 kts | 266° |
| 2026-04-28 19:46 | 19.98535 | -156.30639 | 24331 ft | 435 kts | 266° |
| 2026-04-28 19:46 | 19.98288 | -156.33863 | 24580 ft | 436 kts | 266° |
| 2026-04-28 19:46 | 19.98041 | -156.37074 | 24804 ft | 437 kts | 266° |
| 2026-04-28 19:47 | 19.97792 | -156.40303 | 25045 ft | 438 kts | 266° |
| 2026-04-28 19:47 | 19.97542 | -156.43537 | 25294 ft | 439 kts | 266° |
| 2026-04-28 19:47 | 19.97292 | -156.46764 | 25538 ft | 439 kts | 266° |
| 2026-04-28 19:47 | 19.97040 | -156.50016 | 25778 ft | 440 kts | 266° |
| 2026-04-28 19:48 | 19.96787 | -156.53262 | 26009 ft | 440 kts | 266° |
| 2026-04-28 19:48 | 19.96537 | -156.56470 | 26229 ft | 441 kts | 266° |
| 2026-04-28 19:48 | 19.96282 | -156.59723 | 26486 ft | 441 kts | 266° |
| 2026-04-28 19:48 | 19.96028 | -156.62961 | 26747 ft | 441 kts | 266° |
| 2026-04-28 19:49 | 19.95773 | -156.66211 | 26972 ft | 441 kts | 266° |
| 2026-04-28 19:49 | 19.95517 | -156.69461 | 27240 ft | 440 kts | 266° |
| 2026-04-28 19:49 | 19.95261 | -156.72700 | 27582 ft | 438 kts | 266° |
| 2026-04-28 19:49 | 19.95007 | -156.75908 | 27955 ft | 435 kts | 266° |
| 2026-04-28 19:50 | 19.94586 | -156.81215 | 28508 ft | 432 kts | 266° |
| 2026-04-28 19:50 | 19.94247 | -156.85464 | 28914 ft | 431 kts | 266° |
| 2026-04-28 19:50 | 19.94077 | -156.87602 | 29138 ft | 429 kts | 266° |
| 2026-04-28 19:51 | 19.93828 | -156.90718 | 29501 ft | 427 kts | 266° |
| 2026-04-28 19:51 | 19.93576 | -156.93858 | 29867 ft | 425 kts | 266° |
| 2026-04-28 19:51 | 19.93322 | -156.97016 | 30179 ft | 424 kts | 266° |
| 2026-04-28 19:51 | 19.93074 | -157.00107 | 30411 ft | 423 kts | 266° |
| 2026-04-28 19:52 | 19.92823 | -157.03219 | 30625 ft | 424 kts | 266° |
| 2026-04-28 19:52 | 19.92571 | -157.06342 | 30848 ft | 424 kts | 266° |
| 2026-04-28 19:52 | 19.92318 | -157.09461 | 31091 ft | 423 kts | 266° |
| 2026-04-28 19:52 | 19.92066 | -157.12569 | 31269 ft | 424 kts | 266° |
| 2026-04-28 19:53 | 19.91811 | -157.15699 | 31403 ft | 426 kts | 266° |
| 2026-04-28 19:53 | 19.91555 | -157.18839 | 31566 ft | 426 kts | 266° |
| 2026-04-28 19:53 | 19.91299 | -157.21978 | 31805 ft | 425 kts | 267° |
| 2026-04-28 19:53 | 19.91043 | -157.25096 | 32054 ft | 424 kts | 267° |
| 2026-04-28 19:54 | 19.90786 | -157.28231 | 32042 ft | 427 kts | 267° |
| 2026-04-28 19:54 | 19.90268 | -157.34517 | 32065 ft | 425 kts | 267° |
| 2026-04-28 19:55 | 19.89752 | -157.40755 | 32079 ft | 423 kts | 267° |
| 2026-04-28 19:55 | 19.89236 | -157.46961 | 32074 ft | 421 kts | 267° |
| 2026-04-28 19:56 | 19.88723 | -157.53115 | 32070 ft | 420 kts | 267° |
| 2026-04-28 19:56 | 19.88206 | -157.59287 | 32076 ft | 420 kts | 267° |
| 2026-04-28 19:57 | 19.87686 | -157.65474 | 32072 ft | 420 kts | 267° |
| 2026-04-28 19:57 | 19.87164 | -157.71664 | 32076 ft | 422 kts | 267° |
| 2026-04-28 19:58 | 19.86637 | -157.77874 | 32079 ft | 423 kts | 267° |
| 2026-04-28 19:58 | 19.86105 | -157.84116 | 32077 ft | 425 kts | 267° |
| 2026-04-28 19:59 | 19.85571 | -157.90367 | 32076 ft | 426 kts | 267° |
| 2026-04-28 19:59 | 19.85032 | -157.96644 | 32079 ft | 427 kts | 267° |
| 2026-04-28 20:00 | 19.84493 | -158.02890 | 32075 ft | 427 kts | 267° |
| 2026-04-28 20:00 | 19.83949 | -158.09169 | 32087 ft | 427 kts | 267° |
| 2026-04-28 20:01 | 19.83402 | -158.15456 | 32078 ft | 427 kts | 266° |
| 2026-04-28 20:01 | 19.82855 | -158.21725 | 32064 ft | 426 kts | 267° |
| 2026-04-28 20:02 | 19.82305 | -158.27996 | 32076 ft | 426 kts | 267° |
| 2026-04-28 20:02 | 19.81755 | -158.34248 | 32080 ft | 425 kts | 267° |
| 2026-04-28 20:03 | 19.81203 | -158.40495 | 32077 ft | 425 kts | 266° |
| 2026-04-28 20:03 | 19.80649 | -158.46738 | 32086 ft | 425 kts | 266° |
| 2026-04-28 20:04 | 19.80093 | -158.52988 | 32069 ft | 425 kts | 267° |
| 2026-04-28 20:04 | 19.79534 | -158.59228 | 32071 ft | 425 kts | 267° |
| 2026-04-28 20:05 | 19.78973 | -158.65481 | 32081 ft | 425 kts | 267° |
| 2026-04-28 20:05 | 19.78410 | -158.71731 | 32083 ft | 426 kts | 267° |
| 2026-04-28 20:06 | 19.77846 | -158.77961 | 32083 ft | 427 kts | 267° |
| 2026-04-28 20:06 | 19.77277 | -158.84234 | 32083 ft | 427 kts | 267° |
| 2026-04-28 20:07 | 19.76704 | -158.90516 | 32080 ft | 428 kts | 267° |
| 2026-04-28 20:07 | 19.76127 | -158.96818 | 32083 ft | 429 kts | 267° |
| 2026-04-28 20:08 | 19.75547 | -159.03120 | 32081 ft | 429 kts | 267° |
| 2026-04-28 20:08 | 19.74965 | -159.09430 | 32082 ft | 430 kts | 267° |
| 2026-04-28 20:09 | 19.74379 | -159.15756 | 32082 ft | 430 kts | 267° |
| 2026-04-28 20:09 | 19.73792 | -159.22074 | 32070 ft | 431 kts | 267° |
| 2026-04-28 20:10 | 19.73201 | -159.28405 | 32080 ft | 431 kts | 267° |
| 2026-04-28 20:10 | 19.72611 | -159.34696 | 32083 ft | 431 kts | 267° |
| 2026-04-28 20:11 | 19.72012 | -159.41065 | 32082 ft | 431 kts | 267° |
| 2026-04-28 20:11 | 19.71418 | -159.47364 | 32081 ft | 431 kts | 267° |
| 2026-04-28 20:12 | 19.70818 | -159.53696 | 32075 ft | 432 kts | 267° |
| 2026-04-28 20:12 | 19.70214 | -159.60042 | 32079 ft | 432 kts | 267° |
| 2026-04-28 20:13 | 19.69608 | -159.66389 | 32084 ft | 432 kts | 267° |
| 2026-04-28 20:13 | 19.69000 | -159.72729 | 32085 ft | 432 kts | 267° |
| 2026-04-28 20:14 | 19.68389 | -159.79084 | 32083 ft | 433 kts | 267° |
| 2026-04-28 20:14 | 19.67776 | -159.85432 | 32082 ft | 433 kts | 267° |
| 2026-04-28 20:15 | 19.67159 | -159.91793 | 32080 ft | 433 kts | 267° |
| 2026-04-28 20:15 | 19.66545 | -159.98107 | 32075 ft | 434 kts | 267° |
| 2026-04-28 20:16 | 19.65923 | -160.04481 | 32089 ft | 434 kts | 267° |
| 2026-04-28 20:16 | 19.65299 | -160.10850 | 32076 ft | 434 kts | 267° |
| 2026-04-28 20:17 | 19.64671 | -160.17228 | 32083 ft | 434 kts | 267° |
| 2026-04-28 20:17 | 19.64042 | -160.23598 | 32074 ft | 434 kts | 267° |
| 2026-04-28 20:18 | 19.63410 | -160.29978 | 32083 ft | 434 kts | 267° |
| 2026-04-28 20:18 | 19.62777 | -160.36351 | 32081 ft | 435 kts | 267° |
| 2026-04-28 20:19 | 19.62139 | -160.42737 | 32084 ft | 435 kts | 267° |
| 2026-04-28 20:19 | 19.61501 | -160.49114 | 32081 ft | 435 kts | 267° |
| 2026-04-28 20:20 | 19.60859 | -160.55493 | 32071 ft | 435 kts | 267° |
| 2026-04-28 20:20 | 19.60219 | -160.61844 | 32078 ft | 435 kts | 267° |
| 2026-04-28 20:21 | 19.59572 | -160.68229 | 32082 ft | 436 kts | 267° |
| 2026-04-28 20:21 | 19.58922 | -160.74631 | 32082 ft | 436 kts | 267° |
| 2026-04-28 20:22 | 19.58270 | -160.81027 | 32082 ft | 437 kts | 267° |
| 2026-04-28 20:22 | 19.57614 | -160.87438 | 32082 ft | 437 kts | 267° |
| 2026-04-28 20:23 | 19.56956 | -160.93841 | 32085 ft | 437 kts | 267° |
| 2026-04-28 20:23 | 19.56296 | -161.00247 | 32075 ft | 437 kts | 267° |
| 2026-04-28 20:24 | 19.55632 | -161.06667 | 32086 ft | 438 kts | 267° |
| 2026-04-28 20:24 | 19.54967 | -161.13082 | 32081 ft | 438 kts | 267° |
| 2026-04-28 20:25 | 19.54299 | -161.19499 | 32084 ft | 438 kts | 267° |
| 2026-04-28 20:25 | 19.53627 | -161.25928 | 32085 ft | 438 kts | 267° |
| 2026-04-28 20:26 | 19.52958 | -161.32303 | 32085 ft | 438 kts | 267° |
| 2026-04-28 20:26 | 19.52282 | -161.38730 | 32084 ft | 438 kts | 267° |
| 2026-04-28 20:27 | 19.51605 | -161.45144 | 32081 ft | 438 kts | 267° |
| 2026-04-28 20:27 | 19.50925 | -161.51566 | 32081 ft | 438 kts | 267° |
| 2026-04-28 20:28 | 19.50244 | -161.57973 | 32056 ft | 438 kts | 267° |
| 2026-04-28 20:28 | 19.49560 | -161.64386 | 32072 ft | 437 kts | 267° |
| 2026-04-28 20:29 | 19.48875 | -161.70787 | 32083 ft | 437 kts | 267° |
| 2026-04-28 20:29 | 19.48187 | -161.77191 | 32082 ft | 438 kts | 267° |
| 2026-04-28 20:30 | 19.47496 | -161.83609 | 32081 ft | 438 kts | 267° |
| 2026-04-28 20:30 | 19.46803 | -161.90022 | 32078 ft | 438 kts | 267° |
| 2026-04-28 20:31 | 19.46110 | -161.96406 | 32083 ft | 439 kts | 267° |
| 2026-04-28 20:31 | 19.45412 | -162.02825 | 32086 ft | 439 kts | 267° |
| 2026-04-28 20:32 | 19.44706 | -162.09288 | 32082 ft | 439 kts | 267° |
| 2026-04-28 20:32 | 19.44006 | -162.15678 | 32085 ft | 439 kts | 267° |
| 2026-04-28 20:33 | 19.43301 | -162.22101 | 32080 ft | 439 kts | 267° |
| 2026-04-28 20:33 | 19.42592 | -162.28532 | 32075 ft | 439 kts | 267° |
| 2026-04-28 20:34 | 19.41761 | -162.34936 | 32067 ft | 443 kts | 259° |
| 2026-04-28 20:34 | 19.39134 | -162.40909 | 32079 ft | 455 kts | 240° |
| 2026-04-28 20:35 | 19.34877 | -162.45952 | 32085 ft | 462 kts | 231° |
| 2026-04-28 20:35 | 19.30373 | -162.50802 | 32083 ft | 462 kts | 231° |
| 2026-04-28 20:36 | 19.25906 | -162.55644 | 32063 ft | 462 kts | 231° |
| 2026-04-28 20:36 | 19.21449 | -162.60534 | 32075 ft | 462 kts | 231° |
| 2026-04-28 20:37 | 19.17005 | -162.65433 | 32087 ft | 462 kts | 231° |
| 2026-04-28 20:37 | 19.13307 | -162.69509 | 32078 ft | 462 kts | 231° |
| 2026-04-28 20:38 | 19.08851 | -162.74417 | 32079 ft | 462 kts | 231° |
| 2026-04-28 20:38 | 19.04398 | -162.79315 | 32081 ft | 462 kts | 231° |
| 2026-04-28 20:39 | 18.99935 | -162.84220 | 32068 ft | 462 kts | 231° |
| 2026-04-28 20:39 | 18.95469 | -162.89122 | 32072 ft | 462 kts | 231° |
| 2026-04-28 20:40 | 18.91012 | -162.94012 | 32075 ft | 462 kts | 231° |
| 2026-04-28 20:40 | 18.86553 | -162.98900 | 32070 ft | 462 kts | 231° |
| 2026-04-28 20:41 | 18.82118 | -163.03758 | 32077 ft | 462 kts | 231° |
| 2026-04-28 20:41 | 18.77649 | -163.08649 | 32076 ft | 462 kts | 231° |
| 2026-04-28 20:42 | 18.73186 | -163.13529 | 32076 ft | 462 kts | 231° |
| 2026-04-28 20:42 | 18.68712 | -163.18417 | 32074 ft | 463 kts | 231° |
| 2026-04-28 20:43 | 18.64245 | -163.23294 | 32074 ft | 462 kts | 231° |
| 2026-04-28 20:43 | 18.59768 | -163.28177 | 32075 ft | 463 kts | 231° |
| 2026-04-28 20:44 | 18.55296 | -163.33053 | 32069 ft | 463 kts | 231° |
| 2026-04-28 20:44 | 18.50818 | -163.37929 | 32074 ft | 463 kts | 231° |
| 2026-04-28 20:45 | 18.46358 | -163.42783 | 32075 ft | 464 kts | 231° |
| 2026-04-28 20:45 | 18.41839 | -163.47697 | 32075 ft | 464 kts | 231° |
| 2026-04-28 20:46 | 18.37344 | -163.52580 | 32057 ft | 465 kts | 230° |
| 2026-04-28 20:46 | 18.32870 | -163.57437 | 32071 ft | 465 kts | 230° |
| 2026-04-28 20:47 | 18.28371 | -163.62317 | 32071 ft | 465 kts | 230° |
| 2026-04-28 20:47 | 18.23862 | -163.67205 | 32056 ft | 465 kts | 230° |
| 2026-04-28 20:48 | 18.19359 | -163.72082 | 32071 ft | 465 kts | 230° |
| 2026-04-28 20:48 | 18.14846 | -163.76966 | 32071 ft | 465 kts | 230° |
| 2026-04-28 20:49 | 18.10336 | -163.81842 | 32067 ft | 465 kts | 230° |
| 2026-04-28 20:49 | 18.05823 | -163.86719 | 32064 ft | 466 kts | 230° |
| 2026-04-28 20:50 | 18.01299 | -163.91602 | 32068 ft | 466 kts | 230° |
| 2026-04-28 20:50 | 17.96772 | -163.96486 | 32068 ft | 466 kts | 230° |
| 2026-04-28 20:51 | 17.92282 | -164.01326 | 32057 ft | 466 kts | 230° |
| 2026-04-28 20:51 | 17.87761 | -164.06195 | 32069 ft | 466 kts | 230° |
| 2026-04-28 20:52 | 17.83239 | -164.11062 | 32068 ft | 466 kts | 230° |
| 2026-04-28 20:52 | 17.78707 | -164.15936 | 32064 ft | 466 kts | 230° |
| 2026-04-28 20:53 | 17.71918 | -164.23230 | 32062 ft | 465 kts | 230° |
| 2026-04-28 20:53 | 17.67391 | -164.28089 | 32065 ft | 465 kts | 230° |
| 2026-04-28 20:54 | 17.62874 | -164.32934 | 32062 ft | 465 kts | 230° |
| 2026-04-28 20:54 | 17.58358 | -164.37774 | 32051 ft | 464 kts | 230° |
| 2026-04-28 20:55 | 17.53843 | -164.42610 | 32065 ft | 464 kts | 230° |
| 2026-04-28 20:55 | 17.49317 | -164.47453 | 32065 ft | 465 kts | 230° |
| 2026-04-28 20:56 | 17.44794 | -164.52290 | 32062 ft | 465 kts | 230° |
| 2026-04-28 20:56 | 17.40265 | -164.57129 | 32055 ft | 464 kts | 230° |
| 2026-04-28 20:57 | 17.35776 | -164.61922 | 32062 ft | 464 kts | 230° |
| 2026-04-28 20:57 | 17.31262 | -164.66737 | 32061 ft | 463 kts | 230° |
| 2026-04-28 20:58 | 17.26746 | -164.71553 | 32062 ft | 463 kts | 230° |
| 2026-04-28 20:58 | 17.22242 | -164.76351 | 32063 ft | 462 kts | 229° |
| 2026-04-28 20:59 | 17.17734 | -164.81150 | 32061 ft | 462 kts | 229° |
| 2026-04-28 20:59 | 17.13240 | -164.85931 | 32063 ft | 461 kts | 229° |
| 2026-04-28 21:00 | 17.08752 | -164.90703 | 32056 ft | 460 kts | 230° |
| 2026-04-28 21:00 | 17.04264 | -164.95472 | 32062 ft | 459 kts | 230° |
| 2026-04-28 21:01 | 17.00129 | -165.00489 | 32059 ft | 452 kts | 241° |
| 2026-04-28 21:01 | 16.97446 | -165.06340 | 32069 ft | 445 kts | 252° |
| 2026-04-28 21:02 | 16.95194 | -165.12336 | 32058 ft | 446 kts | 252° |
| 2026-04-28 21:02 | 16.92913 | -165.18367 | 32058 ft | 447 kts | 252° |
| 2026-04-28 21:03 | 16.90599 | -165.24404 | 32055 ft | 449 kts | 251° |
| 2026-04-28 21:03 | 16.88263 | -165.30462 | 32056 ft | 450 kts | 251° |
| 2026-04-28 21:04 | 16.85916 | -165.36532 | 32053 ft | 451 kts | 251° |
| 2026-04-28 21:04 | 16.83566 | -165.42604 | 32045 ft | 451 kts | 251° |
| 2026-04-28 21:05 | 16.81216 | -165.48672 | 32052 ft | 450 kts | 251° |
| 2026-04-28 21:05 | 16.78886 | -165.54682 | 32045 ft | 450 kts | 251° |
| 2026-04-28 21:06 | 16.76542 | -165.60725 | 32049 ft | 449 kts | 251° |
| 2026-04-28 21:06 | 16.74183 | -165.66801 | 32064 ft | 449 kts | 251° |
| 2026-04-28 21:07 | 16.71851 | -165.72799 | 32059 ft | 448 kts | 251° |
| 2026-04-28 21:07 | 16.69509 | -165.78820 | 32041 ft | 448 kts | 251° |
| 2026-04-28 21:08 | 16.67162 | -165.84846 | 32052 ft | 448 kts | 251° |
| 2026-04-28 21:08 | 16.64816 | -165.90863 | 32049 ft | 448 kts | 251° |
| 2026-04-28 21:09 | 16.62462 | -165.96895 | 32060 ft | 449 kts | 251° |
| 2026-04-28 21:09 | 16.60108 | -166.02921 | 32047 ft | 449 kts | 251° |
| 2026-04-28 21:10 | 16.57750 | -166.08953 | 32058 ft | 450 kts | 251° |
| 2026-04-28 21:10 | 16.55390 | -166.14983 | 32039 ft | 449 kts | 251° |
| 2026-04-28 21:11 | 16.53025 | -166.21016 | 32038 ft | 449 kts | 251° |
| 2026-04-28 21:11 | 16.50666 | -166.27031 | 32043 ft | 448 kts | 251° |
| 2026-04-28 21:12 | 16.48315 | -166.33021 | 32047 ft | 448 kts | 251° |
| 2026-04-28 21:12 | 16.45956 | -166.39024 | 32042 ft | 448 kts | 251° |
| 2026-04-28 21:13 | 16.43597 | -166.45024 | 32048 ft | 448 kts | 251° |
| 2026-04-28 21:13 | 16.41236 | -166.51020 | 32035 ft | 448 kts | 251° |
| 2026-04-28 21:14 | 16.38870 | -166.57025 | 32042 ft | 448 kts | 251° |
| 2026-04-28 21:14 | 16.36505 | -166.63019 | 32050 ft | 448 kts | 251° |
| 2026-04-28 21:15 | 16.34133 | -166.69027 | 32049 ft | 448 kts | 251° |
| 2026-04-28 21:15 | 16.31757 | -166.75040 | 32045 ft | 449 kts | 251° |
| 2026-04-28 21:16 | 16.29377 | -166.81057 | 32048 ft | 449 kts | 251° |
| 2026-04-28 21:16 | 16.26994 | -166.87075 | 32039 ft | 449 kts | 251° |
| 2026-04-28 21:17 | 16.24615 | -166.93076 | 32040 ft | 448 kts | 251° |
| 2026-04-28 21:17 | 16.22237 | -166.99069 | 32043 ft | 448 kts | 251° |
| 2026-04-28 21:18 | 16.19873 | -167.05024 | 32042 ft | 448 kts | 251° |
| 2026-04-28 21:18 | 16.17497 | -167.11002 | 32043 ft | 447 kts | 251° |
| 2026-04-28 21:19 | 16.15121 | -167.16974 | 32041 ft | 447 kts | 251° |
| 2026-04-28 21:19 | 16.12740 | -167.22952 | 32033 ft | 447 kts | 250° |
| 2026-04-28 21:20 | 16.10363 | -167.28917 | 32033 ft | 447 kts | 250° |
| 2026-04-28 21:20 | 16.07983 | -167.34881 | 32039 ft | 447 kts | 250° |
| 2026-04-28 21:21 | 16.05599 | -167.40851 | 32039 ft | 448 kts | 250° |
| 2026-04-28 21:21 | 16.03207 | -167.46837 | 32037 ft | 448 kts | 250° |
| 2026-04-28 21:22 | 16.00813 | -167.52820 | 32038 ft | 449 kts | 250° |
| 2026-04-28 21:22 | 15.98818 | -167.57803 | 32039 ft | 449 kts | 250° |
| 2026-04-28 21:23 | 15.96012 | -167.64803 | 32026 ft | 448 kts | 250° |
| 2026-04-28 21:23 | 15.93616 | -167.70775 | 32034 ft | 447 kts | 250° |
| 2026-04-28 21:24 | 15.91236 | -167.76701 | 32036 ft | 446 kts | 250° |
| 2026-04-28 21:24 | 15.88847 | -167.82644 | 32039 ft | 445 kts | 250° |
| 2026-04-28 21:25 | 15.86863 | -167.87577 | 32041 ft | 445 kts | 250° |
| 2026-04-28 21:25 | 15.84476 | -167.93505 | 32036 ft | 444 kts | 250° |
| 2026-04-28 21:26 | 15.82095 | -167.99413 | 32027 ft | 443 kts | 250° |
| 2026-04-28 21:26 | 15.79711 | -168.05324 | 32037 ft | 443 kts | 250° |
| 2026-04-28 21:27 | 15.77326 | -168.11233 | 32039 ft | 443 kts | 250° |
| 2026-04-28 21:27 | 15.74941 | -168.17135 | 32038 ft | 444 kts | 250° |
| 2026-04-28 21:28 | 15.72552 | -168.23043 | 32032 ft | 444 kts | 250° |
| 2026-04-28 21:28 | 15.70153 | -168.28969 | 32034 ft | 445 kts | 250° |
| 2026-04-28 21:29 | 15.67765 | -168.34862 | 32025 ft | 446 kts | 250° |
| 2026-04-28 21:29 | 15.65365 | -168.40780 | 32022 ft | 445 kts | 250° |
| 2026-04-28 21:30 | 15.62969 | -168.46680 | 32028 ft | 443 kts | 250° |
| 2026-04-28 21:30 | 15.60577 | -168.52570 | 32034 ft | 442 kts | 250° |
| 2026-04-28 21:31 | 15.58194 | -168.58429 | 32029 ft | 440 kts | 250° |
| 2026-04-28 21:31 | 15.55813 | -168.64280 | 32019 ft | 439 kts | 250° |
| 2026-04-28 21:32 | 15.53440 | -168.70105 | 32009 ft | 438 kts | 250° |
| 2026-04-28 21:32 | 15.51070 | -168.75918 | 32032 ft | 438 kts | 250° |
| 2026-04-28 21:33 | 15.48712 | -168.81699 | 32031 ft | 438 kts | 250° |
| 2026-04-28 21:33 | 15.46334 | -168.87521 | 32027 ft | 438 kts | 250° |
| 2026-04-28 21:34 | 15.43956 | -168.93341 | 32027 ft | 439 kts | 250° |
| 2026-04-28 21:34 | 15.41567 | -168.99180 | 32030 ft | 440 kts | 250° |
| 2026-04-28 21:35 | 15.39177 | -169.05017 | 32026 ft | 441 kts | 250° |
| 2026-04-28 21:35 | 15.36777 | -169.10873 | 32010 ft | 441 kts | 250° |
| 2026-04-28 21:36 | 15.34378 | -169.16723 | 32020 ft | 442 kts | 250° |
| 2026-04-28 21:36 | 15.31987 | -169.22547 | 32025 ft | 442 kts | 250° |
| 2026-04-28 21:37 | 15.29580 | -169.28404 | 32025 ft | 442 kts | 250° |
| 2026-04-28 21:37 | 15.27167 | -169.34272 | 32024 ft | 442 kts | 250° |
| 2026-04-28 21:38 | 15.24756 | -169.40130 | 32025 ft | 442 kts | 250° |
| 2026-04-28 21:38 | 15.22344 | -169.45984 | 32027 ft | 442 kts | 250° |
| 2026-04-28 21:39 | 15.19930 | -169.51841 | 32021 ft | 441 kts | 250° |
| 2026-04-28 21:39 | 15.17521 | -169.57678 | 32024 ft | 441 kts | 250° |
| 2026-04-28 21:40 | 15.15110 | -169.63516 | 32025 ft | 440 kts | 250° |
| 2026-04-28 21:40 | 15.12720 | -169.69298 | 32025 ft | 440 kts | 250° |
| 2026-04-28 21:41 | 15.10316 | -169.75111 | 32020 ft | 439 kts | 250° |
| 2026-04-28 21:41 | 15.07908 | -169.80926 | 32019 ft | 439 kts | 250° |
| 2026-04-28 21:42 | 15.05506 | -169.86724 | 32022 ft | 438 kts | 250° |
| 2026-04-28 21:42 | 15.03102 | -169.92524 | 32024 ft | 438 kts | 250° |
| 2026-04-28 21:43 | 15.00700 | -169.98311 | 32025 ft | 438 kts | 250° |
| 2026-04-28 21:43 | 14.97880 | -170.03911 | 32026 ft | 441 kts | 243° |
| 2026-04-28 21:44 | 14.94663 | -170.09331 | 32016 ft | 442 kts | 242° |
| 2026-04-28 21:44 | 14.91441 | -170.14735 | 32020 ft | 442 kts | 242° |
| 2026-04-28 21:45 | 14.88264 | -170.20129 | 32018 ft | 441 kts | 242° |
| 2026-04-28 21:45 | 14.85083 | -170.25567 | 32018 ft | 442 kts | 242° |
| 2026-04-28 21:46 | 14.81911 | -170.31000 | 32019 ft | 442 kts | 242° |
| 2026-04-28 21:46 | 14.78731 | -170.36442 | 32022 ft | 442 kts | 242° |
| 2026-04-28 21:47 | 14.75554 | -170.41874 | 32021 ft | 442 kts | 242° |
| 2026-04-28 21:47 | 14.72374 | -170.47306 | 32014 ft | 442 kts | 242° |
| 2026-04-28 21:48 | 14.69190 | -170.52742 | 32018 ft | 442 kts | 242° |
| 2026-04-28 21:48 | 14.66012 | -170.58162 | 32021 ft | 441 kts | 242° |
| 2026-04-28 21:49 | 14.62839 | -170.63570 | 32016 ft | 440 kts | 242° |
| 2026-04-28 21:49 | 14.59687 | -170.68940 | 32019 ft | 439 kts | 242° |
| 2026-04-28 21:50 | 14.56519 | -170.74334 | 32018 ft | 438 kts | 242° |
| 2026-04-28 21:50 | 14.53359 | -170.79708 | 32019 ft | 438 kts | 242° |
| 2026-04-28 21:51 | 14.50198 | -170.85083 | 32018 ft | 437 kts | 242° |
| 2026-04-28 21:51 | 14.47043 | -170.90443 | 32019 ft | 437 kts | 242° |
| 2026-04-28 21:52 | 14.43889 | -170.95799 | 32015 ft | 437 kts | 242° |
| 2026-04-28 21:52 | 14.40727 | -171.01163 | 32017 ft | 437 kts | 242° |
| 2026-04-28 21:53 | 14.37585 | -171.06491 | 32020 ft | 437 kts | 242° |
| 2026-04-28 21:53 | 14.34405 | -171.11880 | 32015 ft | 437 kts | 242° |
| 2026-04-28 21:54 | 14.31260 | -171.17204 | 32012 ft | 437 kts | 242° |
| 2026-04-28 21:54 | 14.28094 | -171.22562 | 32017 ft | 437 kts | 242° |
| 2026-04-28 21:55 | 14.24932 | -171.27908 | 32017 ft | 437 kts | 242° |
| 2026-04-28 21:55 | 14.21770 | -171.33253 | 32014 ft | 437 kts | 242° |
| 2026-04-28 21:56 | 14.18600 | -171.38606 | 32014 ft | 437 kts | 242° |
| 2026-04-28 21:56 | 14.15433 | -171.43952 | 32011 ft | 437 kts | 242° |
| 2026-04-28 21:57 | 14.12262 | -171.49299 | 32011 ft | 438 kts | 242° |
| 2026-04-28 21:57 | 14.09084 | -171.54656 | 32013 ft | 438 kts | 242° |
| 2026-04-28 21:58 | 14.05909 | -171.60006 | 31999 ft | 438 kts | 241° |
| 2026-04-28 21:58 | 14.02746 | -171.65330 | 32013 ft | 438 kts | 241° |
| 2026-04-28 21:59 | 13.99564 | -171.70683 | 32012 ft | 439 kts | 241° |
| 2026-04-28 22:00 | 13.94782 | -171.78721 | 32009 ft | 439 kts | 242° |
| 2026-04-28 22:00 | 13.91591 | -171.84087 | 32012 ft | 439 kts | 241° |
| 2026-04-28 22:01 | 13.88399 | -171.89441 | 32010 ft | 439 kts | 241° |
| 2026-04-28 22:01 | 13.85206 | -171.94794 | 32007 ft | 439 kts | 241° |
| 2026-04-28 22:02 | 13.82009 | -172.00153 | 32007 ft | 439 kts | 241° |
| 2026-04-28 22:02 | 13.78817 | -172.05501 | 32006 ft | 439 kts | 241° |
| 2026-04-28 22:03 | 13.75641 | -172.10817 | 32004 ft | 438 kts | 241° |
| 2026-04-28 22:03 | 13.72449 | -172.16158 | 31993 ft | 438 kts | 241° |
| 2026-04-28 22:04 | 13.69256 | -172.21497 | 32006 ft | 438 kts | 241° |
| 2026-04-28 22:04 | 13.66055 | -172.26848 | 32004 ft | 439 kts | 241° |
| 2026-04-28 22:05 | 13.62853 | -172.32194 | 32004 ft | 440 kts | 241° |
| 2026-04-28 22:05 | 13.59642 | -172.37555 | 32004 ft | 440 kts | 241° |
| 2026-04-28 22:06 | 13.56431 | -172.42910 | 32000 ft | 440 kts | 241° |
| 2026-04-28 22:06 | 13.53216 | -172.48268 | 32005 ft | 441 kts | 241° |
| 2026-04-28 22:07 | 13.50015 | -172.53600 | 31998 ft | 441 kts | 241° |
| 2026-04-28 22:07 | 13.46791 | -172.58968 | 31999 ft | 441 kts | 241° |
| 2026-04-28 22:08 | 13.43570 | -172.64327 | 32000 ft | 441 kts | 241° |
| 2026-04-28 22:08 | 13.40347 | -172.69685 | 32000 ft | 441 kts | 241° |
| 2026-04-28 22:09 | 13.37119 | -172.75051 | 31992 ft | 441 kts | 241° |
| 2026-04-28 22:09 | 13.33894 | -172.80405 | 31998 ft | 441 kts | 240° |
| 2026-04-28 22:10 | 13.30662 | -172.85768 | 32000 ft | 441 kts | 240° |
| 2026-04-28 22:10 | 13.27433 | -172.91124 | 31998 ft | 441 kts | 240° |
| 2026-04-28 22:11 | 13.24196 | -172.96490 | 31998 ft | 442 kts | 240° |
| 2026-04-28 22:11 | 13.20962 | -173.01848 | 31999 ft | 442 kts | 240° |
| 2026-04-28 22:12 | 13.17742 | -173.07179 | 31997 ft | 442 kts | 240° |
| 2026-04-28 22:12 | 13.14503 | -173.12538 | 31998 ft | 442 kts | 240° |
| 2026-04-28 22:13 | 13.11257 | -173.17904 | 31993 ft | 442 kts | 240° |
| 2026-04-28 22:13 | 13.08016 | -173.23260 | 31995 ft | 442 kts | 240° |
| 2026-04-28 22:14 | 13.04770 | -173.28623 | 31991 ft | 442 kts | 240° |
| 2026-04-28 22:14 | 13.02072 | -173.33076 | 31994 ft | 442 kts | 240° |
| 2026-04-28 22:15 | 12.98823 | -173.38435 | 31998 ft | 442 kts | 240° |
| 2026-04-28 22:15 | 12.95578 | -173.43786 | 31997 ft | 442 kts | 240° |
| 2026-04-28 22:16 | 12.92330 | -173.49138 | 31994 ft | 442 kts | 240° |
| 2026-04-28 22:16 | 12.89075 | -173.54499 | 31984 ft | 443 kts | 240° |
| 2026-04-28 22:17 | 12.85822 | -173.59851 | 31990 ft | 443 kts | 240° |
| 2026-04-28 22:17 | 12.82569 | -173.65203 | 31993 ft | 443 kts | 240° |
| 2026-04-28 22:18 | 12.79308 | -173.70564 | 31990 ft | 443 kts | 240° |
| 2026-04-28 22:18 | 12.76050 | -173.75916 | 31995 ft | 443 kts | 240° |
| 2026-04-28 22:19 | 12.72786 | -173.81275 | 31993 ft | 443 kts | 240° |
| 2026-04-28 22:19 | 12.69526 | -173.86624 | 31982 ft | 443 kts | 240° |
| 2026-04-28 22:20 | 12.66280 | -173.91948 | 31992 ft | 443 kts | 240° |
| 2026-04-28 22:20 | 12.62995 | -173.97333 | 31993 ft | 443 kts | 240° |
| 2026-04-28 22:21 | 12.59723 | -174.02694 | 31993 ft | 444 kts | 240° |
| 2026-04-28 22:21 | 12.56475 | -174.08011 | 31992 ft | 444 kts | 240° |
| 2026-04-28 22:22 | 12.53197 | -174.13374 | 31986 ft | 444 kts | 240° |
| 2026-04-28 22:22 | 12.49923 | -174.18729 | 31984 ft | 444 kts | 240° |
| 2026-04-28 22:23 | 12.46641 | -174.24092 | 31979 ft | 444 kts | 240° |
| 2026-04-28 22:23 | 12.43363 | -174.29446 | 31982 ft | 444 kts | 239° |
| 2026-04-28 22:24 | 12.40085 | -174.34798 | 31989 ft | 444 kts | 239° |
| 2026-04-28 22:24 | 12.36805 | -174.40149 | 31986 ft | 444 kts | 239° |
| 2026-04-28 22:25 | 12.33540 | -174.45473 | 31974 ft | 444 kts | 239° |
| 2026-04-28 22:25 | 12.30255 | -174.50826 | 31986 ft | 445 kts | 239° |
| 2026-04-28 22:26 | 12.26965 | -174.56185 | 31986 ft | 445 kts | 239° |
| 2026-04-28 22:26 | 12.23663 | -174.61561 | 31984 ft | 446 kts | 239° |
| 2026-04-28 22:27 | 12.20361 | -174.66934 | 31982 ft | 447 kts | 239° |
| 2026-04-28 22:27 | 12.17053 | -174.72312 | 31989 ft | 447 kts | 239° |
| 2026-04-28 22:28 | 12.13737 | -174.77702 | 31985 ft | 448 kts | 239° |
| 2026-04-28 22:28 | 12.10423 | -174.83084 | 31979 ft | 448 kts | 239° |
| 2026-04-28 22:29 | 12.07108 | -174.88467 | 31980 ft | 448 kts | 239° |
| 2026-04-28 22:29 | 12.03786 | -174.93858 | 31984 ft | 448 kts | 239° |
| 2026-04-28 22:30 | 12.00496 | -174.99214 | 31987 ft | 447 kts | 241° |
| 2026-04-28 22:30 | 11.97962 | -175.04981 | 31983 ft | 446 kts | 249° |
| 2026-04-28 22:31 | 11.95715 | -175.10884 | 31980 ft | 447 kts | 249° |
| 2026-04-28 22:31 | 11.93443 | -175.16808 | 31991 ft | 448 kts | 249° |
| 2026-04-28 22:32 | 11.91158 | -175.22699 | 31981 ft | 449 kts | 249° |
| 2026-04-28 22:32 | 11.88830 | -175.28670 | 31970 ft | 450 kts | 249° |
| 2026-04-28 22:33 | 11.86521 | -175.34582 | 31993 ft | 451 kts | 249° |
| 2026-04-28 22:33 | 11.84196 | -175.40531 | 31975 ft | 451 kts | 249° |
| 2026-04-28 22:34 | 11.81866 | -175.46492 | 31983 ft | 451 kts | 249° |
| 2026-04-28 22:34 | 11.79540 | -175.52440 | 31970 ft | 451 kts | 249° |
| 2026-04-28 22:35 | 11.77213 | -175.58384 | 31970 ft | 451 kts | 249° |
| 2026-04-28 22:35 | 11.74884 | -175.64332 | 31984 ft | 450 kts | 249° |
| 2026-04-28 22:36 | 11.72556 | -175.70271 | 31985 ft | 450 kts | 249° |
| 2026-04-28 22:36 | 11.70248 | -175.76154 | 31972 ft | 449 kts | 249° |
| 2026-04-28 22:37 | 11.67922 | -175.82082 | 31972 ft | 449 kts | 249° |
| 2026-04-28 22:37 | 11.65601 | -175.87990 | 31967 ft | 449 kts | 249° |
| 2026-04-28 22:38 | 11.63281 | -175.93893 | 31978 ft | 448 kts | 249° |
| 2026-04-28 22:38 | 11.60957 | -175.99803 | 31980 ft | 448 kts | 249° |
| 2026-04-28 22:39 | 11.58636 | -176.05700 | 31968 ft | 448 kts | 249° |
| 2026-04-28 22:39 | 11.56313 | -176.11597 | 31974 ft | 448 kts | 249° |
| 2026-04-28 22:40 | 11.53985 | -176.17504 | 31978 ft | 448 kts | 249° |
| 2026-04-28 22:40 | 11.51660 | -176.23399 | 31977 ft | 448 kts | 249° |
| 2026-04-28 22:41 | 11.49347 | -176.29260 | 31968 ft | 448 kts | 249° |
| 2026-04-28 22:41 | 11.47024 | -176.35142 | 31973 ft | 447 kts | 249° |
| 2026-04-28 22:42 | 11.44704 | -176.41015 | 31965 ft | 447 kts | 249° |
| 2026-04-28 22:42 | 11.42380 | -176.46890 | 31969 ft | 446 kts | 249° |
| 2026-04-28 22:43 | 11.40059 | -176.52758 | 31980 ft | 446 kts | 249° |
| 2026-04-28 22:43 | 11.37741 | -176.58610 | 31969 ft | 445 kts | 249° |
| 2026-04-28 22:44 | 11.35421 | -176.64467 | 31967 ft | 445 kts | 249° |
| 2026-04-28 22:44 | 11.33104 | -176.70310 | 31973 ft | 445 kts | 249° |
| 2026-04-28 22:45 | 11.30783 | -176.76159 | 31975 ft | 445 kts | 249° |
| 2026-04-28 22:45 | 11.28465 | -176.81999 | 31961 ft | 445 kts | 249° |
| 2026-04-28 22:46 | 11.26156 | -176.87810 | 31968 ft | 445 kts | 249° |
| 2026-04-28 22:46 | 11.23829 | -176.93664 | 31972 ft | 446 kts | 249° |
| 2026-04-28 22:47 | 11.21502 | -176.99515 | 31968 ft | 446 kts | 249° |
| 2026-04-28 22:47 | 11.19167 | -177.05381 | 31972 ft | 447 kts | 249° |
| 2026-04-28 22:48 | 11.16832 | -177.11242 | 31965 ft | 447 kts | 249° |
| 2026-04-28 22:48 | 11.14491 | -177.17116 | 31970 ft | 447 kts | 249° |
| 2026-04-28 22:49 | 11.12151 | -177.22983 | 31968 ft | 447 kts | 249° |
| 2026-04-28 22:49 | 11.09825 | -177.28813 | 31972 ft | 448 kts | 249° |
| 2026-04-28 22:50 | 11.07477 | -177.34691 | 31962 ft | 448 kts | 249° |
| 2026-04-28 22:50 | 11.05133 | -177.40558 | 31973 ft | 448 kts | 249° |
| 2026-04-28 22:51 | 11.02784 | -177.46433 | 31973 ft | 447 kts | 249° |
| 2026-04-28 22:51 | 11.00438 | -177.52295 | 31969 ft | 447 kts | 248° |
| 2026-04-28 22:52 | 10.98092 | -177.58155 | 31966 ft | 447 kts | 248° |
| 2026-04-28 22:52 | 10.95742 | -177.64021 | 31961 ft | 447 kts | 248° |
| 2026-04-28 22:53 | 10.93396 | -177.69873 | 31966 ft | 447 kts | 248° |
| 2026-04-28 22:53 | 10.91044 | -177.75736 | 31973 ft | 447 kts | 249° |
| 2026-04-28 22:54 | 10.88694 | -177.81591 | 31969 ft | 448 kts | 249° |
| 2026-04-28 22:54 | 10.86340 | -177.87453 | 31959 ft | 448 kts | 248° |
| 2026-04-28 22:55 | 10.83978 | -177.93330 | 31965 ft | 449 kts | 248° |
| 2026-04-28 22:55 | 10.81616 | -177.99204 | 31966 ft | 449 kts | 248° |
| 2026-04-28 22:56 | 10.79251 | -178.05082 | 31965 ft | 449 kts | 248° |
| 2026-04-28 22:56 | 10.76883 | -178.10963 | 31961 ft | 450 kts | 249° |
| 2026-04-28 22:57 | 10.74509 | -178.16855 | 31963 ft | 450 kts | 249° |
| 2026-04-28 22:57 | 10.72138 | -178.22735 | 31970 ft | 450 kts | 249° |
| 2026-04-28 22:58 | 10.69779 | -178.28584 | 31965 ft | 449 kts | 249° |
| 2026-04-28 22:58 | 10.67408 | -178.34458 | 31965 ft | 449 kts | 249° |
| 2026-04-28 22:59 | 10.65033 | -178.40339 | 31956 ft | 449 kts | 248° |
| 2026-04-28 22:59 | 10.62658 | -178.46215 | 31950 ft | 449 kts | 249° |
| 2026-04-28 23:00 | 10.60287 | -178.52078 | 31964 ft | 449 kts | 248° |
| 2026-04-28 23:00 | 10.57916 | -178.57938 | 31967 ft | 448 kts | 248° |
| 2026-04-28 23:01 | 10.55540 | -178.63807 | 31960 ft | 448 kts | 248° |
| 2026-04-28 23:01 | 10.53166 | -178.69667 | 31959 ft | 449 kts | 248° |
| 2026-04-28 23:02 | 10.50784 | -178.75543 | 31956 ft | 450 kts | 248° |
| 2026-04-28 23:02 | 10.48802 | -178.80429 | 31962 ft | 450 kts | 248° |
| 2026-04-28 23:03 | 10.46416 | -178.86308 | 31959 ft | 450 kts | 248° |
| 2026-04-28 23:03 | 10.44027 | -178.92190 | 31957 ft | 451 kts | 248° |
| 2026-04-28 23:04 | 10.41632 | -178.98084 | 31954 ft | 451 kts | 248° |
| 2026-04-28 23:04 | 10.38040 | -179.06918 | 31957 ft | 451 kts | 248° |
| 2026-04-28 23:05 | 10.35646 | -179.12802 | 31953 ft | 451 kts | 248° |
| 2026-04-28 23:05 | 10.33248 | -179.18692 | 31955 ft | 451 kts | 248° |
| 2026-04-28 23:06 | 10.30853 | -179.24570 | 31958 ft | 450 kts | 248° |
| 2026-04-28 23:06 | 10.28471 | -179.30414 | 31962 ft | 450 kts | 248° |
| 2026-04-28 23:07 | 10.26077 | -179.36283 | 31949 ft | 450 kts | 248° |
| 2026-04-28 23:07 | 10.23679 | -179.42158 | 31945 ft | 450 kts | 248° |
| 2026-04-28 23:08 | 10.21285 | -179.48020 | 31953 ft | 450 kts | 248° |
| 2026-04-28 23:08 | 10.18886 | -179.53892 | 31953 ft | 450 kts | 248° |
| 2026-04-28 23:09 | 10.16483 | -179.59767 | 31956 ft | 450 kts | 248° |
| 2026-04-28 23:09 | 10.14082 | -179.65638 | 31951 ft | 451 kts | 248° |
| 2026-04-28 23:10 | 10.11675 | -179.71517 | 31949 ft | 452 kts | 248° |
| 2026-04-28 23:10 | 10.09263 | -179.77407 | 31953 ft | 452 kts | 248° |
| 2026-04-28 23:11 | 10.06862 | -179.83268 | 31951 ft | 452 kts | 248° |
| 2026-04-28 23:11 | 10.04444 | -179.89166 | 31955 ft | 452 kts | 248° |
| 2026-04-28 23:12 | 10.02027 | -179.95058 | 31953 ft | 452 kts | 248° |
| 2026-04-28 23:12 | 9.99645 | 179.99041 | 31939 ft | 452 kts | 251° |
| 2026-04-28 23:13 | 9.97649 | 179.93004 | 31949 ft | 451 kts | 253° |
| 2026-04-28 23:13 | 9.95756 | 179.86911 | 31948 ft | 454 kts | 253° |
| 2026-04-28 23:14 | 9.93848 | 179.80831 | 31949 ft | 452 kts | 252° |
| 2026-04-28 23:14 | 9.91913 | 179.74756 | 31950 ft | 452 kts | 252° |
| 2026-04-28 23:15 | 9.89968 | 179.68691 | 31945 ft | 452 kts | 252° |
| 2026-04-28 23:15 | 9.88023 | 179.62638 | 31951 ft | 451 kts | 252° |
| 2026-04-28 23:16 | 9.86077 | 179.56582 | 31938 ft | 451 kts | 252° |
| 2026-04-28 23:16 | 9.84145 | 179.50575 | 31953 ft | 451 kts | 252° |
| 2026-04-28 23:17 | 9.82195 | 179.44511 | 31943 ft | 454 kts | 252° |
| 2026-04-28 23:17 | 9.80233 | 179.38414 | 31949 ft | 454 kts | 252° |
| 2026-04-28 23:18 | 9.78268 | 179.32315 | 31952 ft | 456 kts | 252° |
| 2026-04-28 23:18 | 9.76307 | 179.26232 | 31945 ft | 457 kts | 252° |
| 2026-04-28 23:19 | 9.74328 | 179.20094 | 31952 ft | 459 kts | 252° |
| 2026-04-28 23:19 | 9.72366 | 179.13947 | 31939 ft | 457 kts | 253° |
| 2026-04-28 23:20 | 9.70454 | 179.07804 | 31949 ft | 456 kts | 253° |
| 2026-04-28 23:20 | 9.68550 | 179.01675 | 31950 ft | 455 kts | 253° |
| 2026-04-28 23:21 | 9.66642 | 178.95555 | 31947 ft | 455 kts | 253° |
| 2026-04-28 23:21 | 9.64728 | 178.89433 | 31942 ft | 455 kts | 252° |
| 2026-04-28 23:22 | 9.62826 | 178.83358 | 31940 ft | 455 kts | 252° |
| 2026-04-28 23:22 | 9.60909 | 178.77239 | 31939 ft | 456 kts | 252° |
| 2026-04-28 23:23 | 9.58988 | 178.71111 | 31949 ft | 456 kts | 252° |
| 2026-04-28 23:23 | 9.57065 | 178.64979 | 31939 ft | 457 kts | 252° |
| 2026-04-28 23:24 | 9.55138 | 178.58840 | 31943 ft | 458 kts | 252° |
| 2026-04-28 23:24 | 9.53207 | 178.52689 | 31936 ft | 458 kts | 252° |
| 2026-04-28 23:25 | 9.51275 | 178.46542 | 31932 ft | 458 kts | 253° |
| 2026-04-28 23:25 | 9.49357 | 178.40445 | 31945 ft | 457 kts | 252° |
| 2026-04-28 23:26 | 9.47427 | 178.34312 | 31938 ft | 457 kts | 252° |
| 2026-04-28 23:26 | 9.45494 | 178.28174 | 31944 ft | 458 kts | 252° |
| 2026-04-28 23:27 | 9.43549 | 178.22002 | 31947 ft | 463 kts | 252° |
| 2026-04-28 23:27 | 9.41580 | 178.15757 | 31949 ft | 468 kts | 252° |
| 2026-04-28 23:28 | 9.39598 | 178.09475 | 31931 ft | 465 kts | 252° |
| 2026-04-28 23:28 | 9.37638 | 178.03269 | 31941 ft | 461 kts | 252° |
| 2026-04-28 23:29 | 9.35689 | 177.97099 | 31934 ft | 460 kts | 252° |
| 2026-04-28 23:29 | 9.33743 | 177.90944 | 31944 ft | 459 kts | 252° |
| 2026-04-28 23:30 | 9.31791 | 177.84774 | 31949 ft | 462 kts | 252° |
| 2026-04-28 23:30 | 9.29817 | 177.78541 | 31941 ft | 466 kts | 252° |
| 2026-04-28 23:31 | 9.27834 | 177.72280 | 31944 ft | 467 kts | 252° |
| 2026-04-28 23:31 | 9.25860 | 177.66054 | 31936 ft | 468 kts | 252° |
| 2026-04-28 23:32 | 9.23855 | 177.59733 | 31944 ft | 469 kts | 252° |
| 2026-04-28 23:32 | 9.21871 | 177.53483 | 31933 ft | 469 kts | 252° |
| 2026-04-28 23:33 | 9.19874 | 177.47195 | 31944 ft | 468 kts | 252° |
| 2026-04-28 23:33 | 9.17883 | 177.40930 | 31933 ft | 468 kts | 252° |
| 2026-04-28 23:34 | 9.15891 | 177.34669 | 31940 ft | 466 kts | 252° |
| 2026-04-28 23:34 | 9.13906 | 177.28431 | 31941 ft | 465 kts | 252° |
| 2026-04-28 23:35 | 9.11921 | 177.22197 | 31937 ft | 465 kts | 252° |
| 2026-04-28 23:35 | 9.09937 | 177.15971 | 31942 ft | 464 kts | 252° |
| 2026-04-28 23:36 | 9.07958 | 177.09766 | 31937 ft | 464 kts | 252° |
| 2026-04-28 23:36 | 9.05976 | 177.03553 | 31944 ft | 465 kts | 252° |
| 2026-04-28 23:37 | 9.03985 | 176.97318 | 31948 ft | 467 kts | 252° |
| 2026-04-28 23:37 | 9.01979 | 176.91038 | 31946 ft | 470 kts | 252° |
| 2026-04-28 23:38 | 8.99964 | 176.84736 | 31943 ft | 472 kts | 252° |
| 2026-04-28 23:38 | 8.97940 | 176.78407 | 31940 ft | 474 kts | 252° |
| 2026-04-28 23:39 | 8.95918 | 176.72093 | 31937 ft | 475 kts | 252° |
| 2026-04-28 23:39 | 8.93884 | 176.65742 | 31935 ft | 475 kts | 252° |
| 2026-04-28 23:40 | 8.91846 | 176.59385 | 31936 ft | 474 kts | 252° |
| 2026-04-28 23:40 | 8.89814 | 176.53049 | 31935 ft | 473 kts | 252° |
| 2026-04-28 23:41 | 8.87786 | 176.46729 | 31939 ft | 472 kts | 252° |
| 2026-04-28 23:41 | 8.85758 | 176.40414 | 31939 ft | 471 kts | 252° |
| 2026-04-28 23:42 | 8.83747 | 176.34156 | 31938 ft | 470 kts | 252° |
| 2026-04-28 23:42 | 8.81729 | 176.27879 | 31940 ft | 469 kts | 252° |
| 2026-04-28 23:43 | 8.79712 | 176.21611 | 31936 ft | 469 kts | 252° |
| 2026-04-28 23:43 | 8.77695 | 176.15341 | 31937 ft | 469 kts | 252° |
| 2026-04-28 23:44 | 8.75677 | 176.09077 | 31939 ft | 469 kts | 252° |
| 2026-04-28 23:44 | 8.73654 | 176.02800 | 31937 ft | 469 kts | 252° |
| 2026-04-28 23:45 | 8.71631 | 175.96530 | 31937 ft | 470 kts | 252° |
| 2026-04-28 23:45 | 8.69605 | 175.90254 | 31937 ft | 470 kts | 252° |
| 2026-04-28 23:46 | 8.67562 | 175.83928 | 31944 ft | 476 kts | 252° |
| 2026-04-28 23:46 | 8.65497 | 175.77535 | 31943 ft | 481 kts | 252° |
| 2026-04-28 23:47 | 8.63412 | 175.71088 | 31935 ft | 485 kts | 252° |
| 2026-04-28 23:47 | 8.61317 | 175.64611 | 31931 ft | 482 kts | 252° |
| 2026-04-28 23:48 | 8.59246 | 175.58216 | 31935 ft | 478 kts | 252° |
| 2026-04-28 23:48 | 8.57192 | 175.51875 | 31934 ft | 477 kts | 252° |
| 2026-04-28 23:49 | 8.55128 | 175.45506 | 31943 ft | 477 kts | 252° |
| 2026-04-28 23:49 | 8.53062 | 175.39136 | 31935 ft | 478 kts | 252° |
| 2026-04-28 23:50 | 8.51338 | 175.33826 | 31941 ft | 479 kts | 252° |
| 2026-04-28 23:50 | 8.49249 | 175.27390 | 31932 ft | 480 kts | 252° |
| 2026-04-28 23:51 | 8.47178 | 175.21017 | 31942 ft | 480 kts | 252° |
| 2026-04-28 23:51 | 8.45093 | 175.14604 | 31938 ft | 481 kts | 252° |
| 2026-04-28 23:52 | 8.42993 | 175.08146 | 31942 ft | 481 kts | 252° |
| 2026-04-28 23:52 | 8.40914 | 175.01760 | 31944 ft | 481 kts | 252° |
| 2026-04-28 23:53 | 8.38823 | 174.95340 | 31930 ft | 482 kts | 251° |
| 2026-04-28 23:53 | 8.36727 | 174.88908 | 31941 ft | 481 kts | 251° |
| 2026-04-28 23:54 | 8.34634 | 174.82490 | 31939 ft | 481 kts | 251° |
| 2026-04-28 23:54 | 8.32539 | 174.76067 | 31939 ft | 481 kts | 251° |
| 2026-04-28 23:55 | 8.30447 | 174.69661 | 31937 ft | 480 kts | 251° |
| 2026-04-28 23:55 | 8.28352 | 174.63246 | 31925 ft | 481 kts | 251° |
| 2026-04-28 23:56 | 8.26257 | 174.56838 | 31941 ft | 481 kts | 251° |
| 2026-04-28 23:56 | 8.24155 | 174.50412 | 31933 ft | 482 kts | 251° |
| 2026-04-28 23:57 | 8.22065 | 174.44026 | 31936 ft | 482 kts | 251° |
| 2026-04-28 23:57 | 8.19961 | 174.37599 | 31938 ft | 483 kts | 251° |
| 2026-04-28 23:58 | 8.17853 | 174.31165 | 31929 ft | 483 kts | 251° |
| 2026-04-28 23:58 | 8.15738 | 174.24714 | 31938 ft | 483 kts | 251° |
| 2026-04-28 23:59 | 8.13624 | 174.18270 | 31931 ft | 484 kts | 251° |
| 2026-04-28 23:59 | 8.11506 | 174.11813 | 31934 ft | 484 kts | 251° |
| 2026-04-29 00:00 | 8.09387 | 174.05363 | 31937 ft | 484 kts | 251° |
| 2026-04-29 00:00 | 8.07263 | 173.98902 | 31930 ft | 485 kts | 251° |
| 2026-04-29 00:01 | 8.05142 | 173.92448 | 31936 ft | 485 kts | 251° |
| 2026-04-29 00:01 | 8.03030 | 173.86026 | 31930 ft | 485 kts | 251° |
| 2026-04-29 00:02 | 8.00905 | 173.79576 | 31933 ft | 485 kts | 251° |
| 2026-04-29 00:02 | 7.98775 | 173.73109 | 31937 ft | 485 kts | 251° |
| 2026-04-29 00:03 | 7.96650 | 173.66656 | 31926 ft | 485 kts | 250° |
| 2026-04-29 00:03 | 7.94523 | 173.60203 | 31937 ft | 485 kts | 251° |
| 2026-04-29 00:04 | 7.92391 | 173.53743 | 31933 ft | 485 kts | 251° |
| 2026-04-29 00:04 | 7.90263 | 173.47299 | 31933 ft | 484 kts | 250° |
| 2026-04-29 00:05 | 7.88130 | 173.40844 | 31932 ft | 484 kts | 251° |
| 2026-04-29 00:05 | 7.86016 | 173.34442 | 31920 ft | 485 kts | 250° |
| 2026-04-29 00:06 | 7.83881 | 173.27985 | 31932 ft | 485 kts | 250° |
| 2026-04-29 00:06 | 7.81744 | 173.21527 | 31932 ft | 485 kts | 250° |
| 2026-04-29 00:07 | 7.79608 | 173.15078 | 31929 ft | 485 kts | 251° |
| 2026-04-29 00:07 | 7.77470 | 173.08624 | 31935 ft | 485 kts | 251° |
| 2026-04-29 00:08 | 7.75334 | 173.02180 | 31922 ft | 485 kts | 251° |
| 2026-04-29 00:08 | 7.73191 | 172.95716 | 31518 ft | 490 kts | 251° |
| 2026-04-29 00:09 | 7.72109 | 172.92453 | 30862 ft | 490 kts | 251° |
| 2026-04-29 00:09 | 7.71028 | 172.89194 | 30235 ft | 490 kts | 251° |
| 2026-04-29 00:09 | 7.69954 | 172.85959 | 29676 ft | 486 kts | 251° |
| 2026-04-29 00:09 | 7.68884 | 172.82735 | 29093 ft | 481 kts | 251° |
| 2026-04-29 00:10 | 7.67828 | 172.79554 | 28548 ft | 477 kts | 250° |
| 2026-04-29 00:10 | 7.66793 | 172.76438 | 28023 ft | 472 kts | 251° |
| 2026-04-29 00:10 | 7.65755 | 172.73315 | 27498 ft | 468 kts | 251° |
| 2026-04-29 00:10 | 7.64726 | 172.70219 | 26983 ft | 464 kts | 250° |
| 2026-04-29 00:11 | 7.63705 | 172.67145 | 26475 ft | 460 kts | 251° |
| 2026-04-29 00:11 | 7.62692 | 172.64100 | 25956 ft | 457 kts | 250° |
| 2026-04-29 00:11 | 7.60682 | 172.58058 | 24918 ft | 451 kts | 250° |
| 2026-04-29 00:12 | 7.59686 | 172.55067 | 24410 ft | 449 kts | 250° |
| 2026-04-29 00:12 | 7.58696 | 172.52093 | 23892 ft | 447 kts | 250° |
| 2026-04-29 00:12 | 7.57710 | 172.49132 | 23357 ft | 445 kts | 250° |
| 2026-04-29 00:12 | 7.56729 | 172.46185 | 22785 ft | 442 kts | 250° |
| 2026-04-29 00:13 | 7.55756 | 172.43266 | 22272 ft | 437 kts | 250° |
| 2026-04-29 00:13 | 7.54793 | 172.40373 | 21763 ft | 433 kts | 250° |
| 2026-04-29 00:13 | 7.53837 | 172.37506 | 21268 ft | 430 kts | 251° |
| 2026-04-29 00:13 | 7.52890 | 172.34665 | 20779 ft | 426 kts | 250° |
| 2026-04-29 00:14 | 7.51952 | 172.31854 | 20295 ft | 422 kts | 250° |
| 2026-04-29 00:14 | 7.51021 | 172.29058 | 19800 ft | 419 kts | 249° |
| 2026-04-29 00:14 | 7.50097 | 172.26285 | 19311 ft | 416 kts | 250° |
| 2026-04-29 00:14 | 7.49177 | 172.23529 | 18833 ft | 413 kts | 250° |
| 2026-04-29 00:15 | 7.48264 | 172.20796 | 18346 ft | 410 kts | 249° |
| 2026-04-29 00:15 | 7.47368 | 172.18111 | 17817 ft | 407 kts | 249° |
| 2026-04-29 00:15 | 7.46469 | 172.15420 | 17326 ft | 404 kts | 250° |
| 2026-04-29 00:15 | 7.45579 | 172.12751 | 16853 ft | 400 kts | 250° |
| 2026-04-29 00:16 | 7.44694 | 172.10103 | 16376 ft | 397 kts | 250° |
| 2026-04-29 00:16 | 7.43818 | 172.07481 | 15901 ft | 393 kts | 249° |
| 2026-04-29 00:16 | 7.42948 | 172.04880 | 15452 ft | 390 kts | 249° |
| 2026-04-29 00:16 | 7.42085 | 172.02301 | 14994 ft | 387 kts | 250° |
| 2026-04-29 00:17 | 7.41228 | 171.99742 | 14550 ft | 384 kts | 250° |
| 2026-04-29 00:17 | 7.40379 | 171.97203 | 14091 ft | 381 kts | 250° |
| 2026-04-29 00:17 | 7.39536 | 171.94682 | 13617 ft | 379 kts | 249° |
| 2026-04-29 00:17 | 7.38698 | 171.92175 | 13126 ft | 376 kts | 250° |
| 2026-04-29 00:18 | 7.37867 | 171.89690 | 12667 ft | 373 kts | 250° |
| 2026-04-29 00:18 | 7.37044 | 171.87227 | 12213 ft | 369 kts | 249° |
| 2026-04-29 00:18 | 7.36225 | 171.84785 | 11773 ft | 366 kts | 249° |
| 2026-04-29 00:18 | 7.35414 | 171.82365 | 11334 ft | 364 kts | 249° |
| 2026-04-29 00:19 | 7.34610 | 171.79962 | 10900 ft | 361 kts | 249° |
| 2026-04-29 00:19 | 7.33817 | 171.77595 | 10727 ft | 351 kts | 250° |
| 2026-04-29 00:19 | 7.33055 | 171.75316 | 10529 ft | 335 kts | 249° |
| 2026-04-29 00:19 | 7.32332 | 171.73152 | 10388 ft | 317 kts | 249° |
| 2026-04-29 00:20 | 7.31641 | 171.71083 | 10251 ft | 307 kts | 250° |
| 2026-04-29 00:20 | 7.30965 | 171.69070 | 10137 ft | 299 kts | 250° |
| 2026-04-29 00:20 | 7.30308 | 171.67111 | 10010 ft | 291 kts | 250° |
| 2026-04-29 00:20 | 7.29667 | 171.65200 | 9844 ft | 286 kts | 250° |
| 2026-04-29 00:21 | 7.29032 | 171.63308 | 9553 ft | 282 kts | 249° |
| 2026-04-29 00:21 | 7.28408 | 171.61449 | 9262 ft | 278 kts | 250° |
| 2026-04-29 00:21 | 7.27794 | 171.59620 | 8997 ft | 274 kts | 249° |
| 2026-04-29 00:21 | 7.27193 | 171.57830 | 8726 ft | 274 kts | 249° |
| 2026-04-29 00:22 | 7.26580 | 171.56003 | 8472 ft | 277 kts | 249° |
| 2026-04-29 00:22 | 7.25958 | 171.54153 | 8186 ft | 281 kts | 249° |
| 2026-04-29 00:22 | 7.25327 | 171.52278 | 7926 ft | 284 kts | 250° |
| 2026-04-29 00:22 | 7.24698 | 171.50403 | 7619 ft | 281 kts | 249° |
| 2026-04-29 00:23 | 7.24075 | 171.48544 | 7323 ft | 279 kts | 250° |
| 2026-04-29 00:23 | 7.23458 | 171.46705 | 7032 ft | 276 kts | 250° |
| 2026-04-29 00:23 | 7.22846 | 171.44880 | 6751 ft | 273 kts | 249° |
| 2026-04-29 00:23 | 7.22238 | 171.43074 | 6483 ft | 271 kts | 250° |
| 2026-04-29 00:24 | 7.21636 | 171.41281 | 6201 ft | 269 kts | 250° |
| 2026-04-29 00:24 | 7.21035 | 171.39493 | 5938 ft | 271 kts | 250° |
| 2026-04-29 00:24 | 7.20425 | 171.37679 | 5676 ft | 276 kts | 249° |
| 2026-04-29 00:24 | 7.19802 | 171.35826 | 5369 ft | 282 kts | 250° |
| 2026-04-29 00:25 | 7.19177 | 171.33970 | 5068 ft | 279 kts | 249° |
| 2026-04-29 00:25 | 7.18558 | 171.32125 | 4782 ft | 276 kts | 250° |
| 2026-04-29 00:25 | 7.17945 | 171.30301 | 4480 ft | 274 kts | 250° |
| 2026-04-29 00:25 | 7.17331 | 171.28476 | 4097 ft | 276 kts | 250° |
| 2026-04-29 00:26 | 7.16721 | 171.26662 | 3837 ft | 272 kts | 250° |
| 2026-04-29 00:26 | 7.16115 | 171.24858 | 3500 ft | 273 kts | 250° |
| 2026-04-29 00:26 | 7.15509 | 171.23054 | 3212 ft | 271 kts | 249° |
| 2026-04-29 00:26 | 7.14906 | 171.21264 | 2940 ft | 269 kts | 250° |
| 2026-04-29 00:27 | 7.14317 | 171.19511 | 2677 ft | 266 kts | 249° |
| 2026-04-29 00:27 | 7.13727 | 171.17753 | 2423 ft | 262 kts | 250° |
| 2026-04-29 00:27 | 7.13152 | 171.16039 | 2202 ft | 253 kts | 250° |
| 2026-04-29 00:27 | 7.12595 | 171.14389 | 1918 ft | 245 kts | 250° |
| 2026-04-29 00:28 | 7.12063 | 171.12814 | 1789 ft | 229 kts | 251° |
| 2026-04-29 00:28 | 7.11572 | 171.11361 | 1653 ft | 211 kts | 250° |
| 2026-04-29 00:28 | 7.10894 | 171.10128 | 1481 ft | 196 kts | 221° |
| 2026-04-29 00:28 | 7.09814 | 171.09357 | 1498 ft | 189 kts | 200° |
| 2026-04-29 00:29 | 7.08582 | 171.08964 | 1510 ft | 184 kts | 184° |
| 2026-04-29 00:29 | 7.07320 | 171.08964 | 1509 ft | 179 kts | 164° |
| 2026-04-29 00:29 | 7.06294 | 171.09540 | 1472 ft | 167 kts | 117° |
| 2026-04-29 00:29 | 7.06093 | 171.10613 | 1511 ft | 160 kts | 89° |
| 2026-04-29 00:30 | 7.06101 | 171.11774 | 1600 ft | 163 kts | 82° |
| 2026-04-29 00:30 | 7.06384 | 171.12489 | 1679 ft | 170 kts | 54° |
| 2026-04-29 00:30 | 7.07824 | 171.13160 | 1415 ft | 189 kts | 359° |
| 2026-04-29 00:30 | 7.09020 | 171.12551 | 854 ft | 203 kts | 308° |
| 2026-04-29 00:31 | 7.09587 | 171.11332 | 828 ft | 181 kts | 293° |
| 2026-04-29 00:31 | 7.10034 | 171.10144 | 885 ft | 191 kts | 294° |
| 2026-04-29 00:31 | 7.10471 | 171.08823 | 774 ft | 200 kts | 286° |
| 2026-04-29 00:31 | 7.10828 | 171.07485 | 641 ft | 196 kts | 289° |
| 2026-04-29 00:32 | 7.11324 | 171.06236 | 576 ft | 189 kts | 304° |
| 2026-04-29 00:32 | 7.12111 | 171.05206 | 608 ft | 187 kts | 319° |
| 2026-04-29 00:32 | 7.13065 | 171.04318 | 636 ft | 185 kts | 324° |
| 2026-04-29 00:32 | 7.13749 | 171.03323 | 1000 ft | 170 kts | 277° |
| 2026-04-29 00:33 | 7.13476 | 171.02199 | 1337 ft | 173 kts | 218° |
| 2026-04-29 00:33 | 7.12358 | 171.01962 | 1714 ft | 176 kts | 146° |
| 2026-04-29 00:33 | 7.11606 | 171.03001 | 1836 ft | 209 kts | 106° |
| 2026-04-29 00:33 | 7.11285 | 171.04498 | 1969 ft | 223 kts | 99° |
| 2026-04-29 00:34 | 7.11028 | 171.06030 | 1905 ft | 226 kts | 100° |
| 2026-04-29 00:34 | 7.10696 | 171.07545 | 1980 ft | 219 kts | 103° |
| 2026-04-29 00:34 | 7.10226 | 171.08981 | 1943 ft | 210 kts | 109° |
| 2026-04-29 00:34 | 7.09691 | 171.10309 | 1931 ft | 199 kts | 110° |
| 2026-04-29 00:35 | 7.09181 | 171.11595 | 1965 ft | 197 kts | 110° |
| 2026-04-29 00:35 | 7.08667 | 171.12917 | 1783 ft | 212 kts | 108° |
| 2026-04-29 00:35 | 7.08167 | 171.14346 | 1630 ft | 222 kts | 109° |
| 2026-04-29 00:35 | 7.07579 | 171.15854 | 1377 ft | 236 kts | 110° |
| 2026-04-29 00:36 | 7.06995 | 171.17402 | 1329 ft | 237 kts | 110° |
| 2026-04-29 00:36 | 7.06570 | 171.18404 | 1406 ft | 233 kts | 112° |
| 2026-04-29 00:36 | 7.05715 | 171.20433 | 1286 ft | 237 kts | 110° |
| 2026-04-29 00:36 | 7.05393 | 171.21461 | 1154 ft | 223 kts | 100° |
| 2026-04-29 00:37 | 7.05493 | 171.22920 | 803 ft | 197 kts | 79° |
| 2026-04-29 00:37 | 7.05770 | 171.24175 | 502 ft | 174 kts | 78° |
| 2026-04-29 00:37 | 7.06032 | 171.25301 | 211 ft | 156 kts | 78° |
| 2026-04-29 00:37 | 7.06284 | 171.26290 | 21 ft | 134 kts | 78° |
| 2026-04-29 00:38 | 7.06478 | 171.27095 | 7 ft | 101 kts | 76° |
| 2026-04-29 00:38 | 7.06583 | 171.27550 | 3 ft | 24 kts | 79° |
| 2026-04-29 00:38 | 7.06601 | 171.27626 | 3 ft | 3 kts | 8° |
| 2026-04-29 00:38 | 7.06594 | 171.27535 | 2 ft | 29 kts | 251° |
| 2026-04-29 00:39 | 7.06530 | 171.27322 | 3 ft | 35 kts | 255° |
| 2026-04-29 00:39 | 7.06471 | 171.27076 | 5 ft | 33 kts | 256° |
| 2026-04-29 00:39 | 7.06512 | 171.26963 | 4 ft | 19 kts | 3° |
| 2026-04-29 00:39 | 7.06545 | 171.26982 | 3 ft | 0 kts | 64° |